70AR weather

Randal Field
Gosnell, Arkansas, United States

Public forecast

Using degrees Fahrenheit for public forecast. Weather courtesy of forecast.io.

METAR (pilot weather report)

Closest report is Arkansas International Airport, 3.2 nm (5.9 km) SE. Retrieved 2019/05/24 18:50 UTC (15 minutes ago):

KBYH 241850Z 23010G19KT 10SM FEW050 SCT100 33/21 A3011

TAF (pilot weather forecast)

Closest forecast is Jonesboro Municipal Airport, 33.0 nm (61.2 km) WSW. Retrieved 2019/05/24 18:48 UTC (17 minutes ago):

TAF KJBR 241746Z 2418/2518 21011G18KT P6SM FEW050 SCT250 FM250200 19004KT P6SM SKC FM251500 23012G18KT P6SM FEW040 SCT250